This is the latest recevied weather packets stored in our database for station/object KD8JAM. If no packets are shown the sender has not sent any weather packets the latest 10 day(s).
| Time | Temp. | Humidity | Pressure | Rain* | Wind** | Luminosity | Snow |
|---|---|---|---|---|---|---|---|
| 1778078971 | 2.78° C | 81% | 1013.3 hPa | 0 mm | - | 661 W/m² | - |
| 1778078667 | 2.22° C | 84% | 1012.9 hPa | 0 mm | - | 490 W/m² | - |
| 1778078366 | 2.22° C | 84% | 1013.3 hPa | 0 mm | - | 334 W/m² | - |
| 1778078062 | 2.22° C | 86% | 1013.3 hPa | 0 mm | - | 283 W/m² | - |
| 1778077760 | 1.67° C | 87% | 1013.2 hPa | 0 mm | - | 263 W/m² | - |
| 1778077458 | 2.22° C | 86% | 1013.3 hPa | 0 mm | - | 241 W/m² | - |
| 1778077156 | 2.22° C | 86% | 1013.2 hPa | 0 mm | - | 225 W/m² | - |
| 1778076854 | 2.22° C | 86% | 1013 hPa | 0 mm | - | 281 W/m² | - |
| 1778076552 | 2.22° C | 86% | 1012.8 hPa | 0 mm | - | 294 W/m² | - |
| 1778076248 | 2.22° C | 85% | 1013 hPa | 0 mm | - | 327 W/m² | - |
| 1778075946 | 1.67° C | 86% | 1012.8 hPa | 0 mm | - | 285 W/m² | - |
| 1778075642 | 1.67° C | 88% | 1012.9 hPa | 0 mm | - | 243 W/m² | - |
| 1778075338 | 1.67° C | 87% | 1012.8 hPa | 0 mm | - | 212 W/m² | - |
| 1778075035 | 1.67° C | 87% | 1012.8 hPa | 0 mm | - | 192 W/m² | - |
| 1778074732 | 1.67° C | 88% | 1012.7 hPa | 0 mm | - | 178 W/m² | - |
| 1778074428 | 1.67° C | 88% | 1012.5 hPa | 0 mm | - | 172 W/m² | - |
| 1778074125 | 1.67° C | 88% | 1012.5 hPa | 0 mm | - | 168 W/m² | - |
| 1778073822 | 1.11° C | 88% | 1012.4 hPa | 0 mm | - | 161 W/m² | - |
| 1778073521 | 1.67° C | 88% | 1012.6 hPa | 0 mm | - | 147 W/m² | - |
| 1778073216 | 1.11° C | 89% | 1012.4 hPa | 0 mm | - | 137 W/m² | - |
| 1778072914 | 1.11° C | 90% | 1012.4 hPa | 0 mm | - | 129 W/m² | - |
| 1778072610 | 1.11° C | 89% | 1012.4 hPa | 0 mm | - | 122 W/m² | - |
| 1778072308 | 1.11° C | 90% | 1012.4 hPa | 0 mm | - | 109 W/m² | - |
| 1778072006 | 1.11° C | 90% | 1012.5 hPa | 0 mm | - | 107 W/m² | - |
| 1778071705 | 1.11° C | 91% | 1012.3 hPa | 0 mm | - | 105 W/m² | - |
* Rain latest hour (hover to see other rain measurements)
** Current wind speed in m/s (hover to see current wind gust speed)